sensor_id;sensor_type;location;lat;lon;timestamp;P1;durP1;ratioP1;P2;durP2;ratioP2
51248;SDS011;39642;47.556;18.728;2022-12-07T00:01:03;16.98;;;7.93;;
51248;SDS011;39642;47.556;18.728;2022-12-07T00:03:34;15.23;;;7.43;;
51248;SDS011;39642;47.556;18.728;2022-12-07T00:06:02;18.35;;;8.57;;
51248;SDS011;39642;47.556;18.728;2022-12-07T00:08:29;16.42;;;8.23;;
51248;SDS011;39642;47.556;18.728;2022-12-07T00:11:00;16.40;;;7.40;;
51248;SDS011;39642;47.556;18.728;2022-12-07T00:13:27;17.23;;;8.23;;
51248;SDS011;39642;47.556;18.728;2022-12-07T00:15:53;17.20;;;7.55;;
51248;SDS011;39642;47.556;18.728;2022-12-07T00:18:19;16.83;;;8.15;;
51248;SDS011;39642;47.556;18.728;2022-12-07T00:20:45;15.57;;;7.28;;
51248;SDS011;39642;47.556;18.728;2022-12-07T00:23:10;17.45;;;8.02;;
51248;SDS011;39642;47.556;18.728;2022-12-07T00:25:36;13.93;;;6.62;;
51248;SDS011;39642;47.556;18.728;2022-12-07T00:28:02;14.38;;;6.57;;
51248;SDS011;39642;47.556;18.728;2022-12-07T00:30:28;13.45;;;6.07;;
51248;SDS011;39642;47.556;18.728;2022-12-07T00:32:54;15.32;;;6.43;;
51248;SDS011;39642;47.556;18.728;2022-12-07T00:35:20;18.40;;;7.65;;
51248;SDS011;39642;47.556;18.728;2022-12-07T00:37:46;14.27;;;6.10;;
51248;SDS011;39642;47.556;18.728;2022-12-07T00:40:12;14.60;;;6.60;;
51248;SDS011;39642;47.556;18.728;2022-12-07T00:42:38;15.40;;;7.07;;
51248;SDS011;39642;47.556;18.728;2022-12-07T00:45:03;14.85;;;6.25;;
51248;SDS011;39642;47.556;18.728;2022-12-07T00:47:30;13.32;;;6.30;;
51248;SDS011;39642;47.556;18.728;2022-12-07T00:49:56;13.85;;;6.00;;
51248;SDS011;39642;47.556;18.728;2022-12-07T00:52:21;13.65;;;5.87;;
51248;SDS011;39642;47.556;18.728;2022-12-07T00:54:47;14.70;;;5.82;;
51248;SDS011;39642;47.556;18.728;2022-12-07T00:57:13;13.05;;;5.85;;
51248;SDS011;39642;47.556;18.728;2022-12-07T00:59:39;15.48;;;6.37;;
51248;SDS011;39642;47.556;18.728;2022-12-07T01:02:05;13.27;;;6.25;;
51248;SDS011;39642;47.556;18.728;2022-12-07T01:04:32;15.75;;;7.20;;
51248;SDS011;39642;47.556;18.728;2022-12-07T01:06:59;13.90;;;6.40;;
51248;SDS011;39642;47.556;18.728;2022-12-07T01:09:25;13.77;;;6.22;;
51248;SDS011;39642;47.556;18.728;2022-12-07T01:11:51;13.85;;;6.43;;
51248;SDS011;39642;47.556;18.728;2022-12-07T01:14:16;12.98;;;6.03;;
51248;SDS011;39642;47.556;18.728;2022-12-07T01:16:42;14.35;;;6.57;;
51248;SDS011;39642;47.556;18.728;2022-12-07T01:19:08;13.32;;;5.78;;
51248;SDS011;39642;47.556;18.728;2022-12-07T01:21:34;12.45;;;5.55;;
51248;SDS011;39642;47.556;18.728;2022-12-07T01:24:03;14.38;;;5.75;;
51248;SDS011;39642;47.556;18.728;2022-12-07T01:26:30;13.13;;;5.43;;
51248;SDS011;39642;47.556;18.728;2022-12-07T01:28:56;13.10;;;6.15;;
51248;SDS011;39642;47.556;18.728;2022-12-07T01:31:25;11.85;;;4.95;;
51248;SDS011;39642;47.556;18.728;2022-12-07T01:33:54;12.30;;;5.10;;
51248;SDS011;39642;47.556;18.728;2022-12-07T01:38:54;11.85;;;4.95;;
51248;SDS011;39642;47.556;18.728;2022-12-07T01:41:23;12.32;;;5.43;;
51248;SDS011;39642;47.556;18.728;2022-12-07T01:46:59;10.93;;;4.70;;
51248;SDS011;39642;47.556;18.728;2022-12-07T01:49:46;11.65;;;4.97;;
51248;SDS011;39642;47.556;18.728;2022-12-07T01:54:45;11.48;;;4.82;;
51248;SDS011;39642;47.556;18.728;2022-12-07T01:57:14;11.65;;;5.00;;
51248;SDS011;39642;47.556;18.728;2022-12-07T01:59:42;11.30;;;4.75;;
51248;SDS011;39642;47.556;18.728;2022-12-07T02:02:13;10.30;;;4.20;;
51248;SDS011;39642;47.556;18.728;2022-12-07T02:05:03;11.73;;;4.68;;
51248;SDS011;39642;47.556;18.728;2022-12-07T02:07:30;12.88;;;5.37;;
51248;SDS011;39642;47.556;18.728;2022-12-07T02:10:12;12.25;;;4.82;;
51248;SDS011;39642;47.556;18.728;2022-12-07T02:12:41;12.57;;;5.18;;
51248;SDS011;39642;47.556;18.728;2022-12-07T02:15:10;13.38;;;5.82;;
51248;SDS011;39642;47.556;18.728;2022-12-07T02:17:40;13.90;;;5.32;;
51248;SDS011;39642;47.556;18.728;2022-12-07T02:23:00;12.18;;;4.90;;
51248;SDS011;39642;47.556;18.728;2022-12-07T02:28:37;11.45;;;5.12;;
51248;SDS011;39642;47.556;18.728;2022-12-07T02:31:17;13.80;;;5.80;;
51248;SDS011;39642;47.556;18.728;2022-12-07T02:33:48;11.68;;;4.57;;
51248;SDS011;39642;47.556;18.728;2022-12-07T02:41:22;11.70;;;4.93;;
51248;SDS011;39642;47.556;18.728;2022-12-07T02:44:00;13.05;;;5.40;;
51248;SDS011;39642;47.556;18.728;2022-12-07T02:46:31;12.63;;;4.95;;
51248;SDS011;39642;47.556;18.728;2022-12-07T02:49:01;12.10;;;5.10;;
51248;SDS011;39642;47.556;18.728;2022-12-07T02:51:31;11.52;;;4.72;;
51248;SDS011;39642;47.556;18.728;2022-12-07T02:53:58;12.30;;;5.40;;
51248;SDS011;39642;47.556;18.728;2022-12-07T02:56:35;12.55;;;5.30;;
51248;SDS011;39642;47.556;18.728;2022-12-07T03:10:07;11.57;;;4.82;;
51248;SDS011;39642;47.556;18.728;2022-12-07T03:15:25;11.43;;;4.70;;
51248;SDS011;39642;47.556;18.728;2022-12-07T03:18:11;11.43;;;4.50;;
51248;SDS011;39642;47.556;18.728;2022-12-07T03:20:41;10.68;;;4.70;;
51248;SDS011;39642;47.556;18.728;2022-12-07T03:23:10;12.57;;;5.28;;
51248;SDS011;39642;47.556;18.728;2022-12-07T03:25:41;11.70;;;4.62;;
51248;SDS011;39642;47.556;18.728;2022-12-07T03:28:13;11.35;;;4.65;;
51248;SDS011;39642;47.556;18.728;2022-12-07T03:33:28;11.65;;;4.30;;
51248;SDS011;39642;47.556;18.728;2022-12-07T03:36:07;11.77;;;4.57;;
51248;SDS011;39642;47.556;18.728;2022-12-07T03:38:38;11.82;;;4.40;;
51248;SDS011;39642;47.556;18.728;2022-12-07T03:43:37;12.27;;;5.15;;
51248;SDS011;39642;47.556;18.728;2022-12-07T03:46:18;11.65;;;4.68;;
51248;SDS011;39642;47.556;18.728;2022-12-07T03:51:31;11.38;;;4.43;;
51248;SDS011;39642;47.556;18.728;2022-12-07T03:54:09;12.02;;;5.00;;
51248;SDS011;39642;47.556;18.728;2022-12-07T03:56:41;12.02;;;4.55;;
51248;SDS011;39642;47.556;18.728;2022-12-07T03:59:10;10.63;;;4.53;;
51248;SDS011;39642;47.556;18.728;2022-12-07T04:01:38;11.40;;;4.50;;
51248;SDS011;39642;47.556;18.728;2022-12-07T04:04:04;11.70;;;4.95;;
51248;SDS011;39642;47.556;18.728;2022-12-07T04:06:30;10.85;;;4.45;;
51248;SDS011;39642;47.556;18.728;2022-12-07T04:08:55;11.32;;;4.50;;
51248;SDS011;39642;47.556;18.728;2022-12-07T04:11:21;12.50;;;4.97;;
51248;SDS011;39642;47.556;18.728;2022-12-07T04:13:47;11.57;;;4.72;;
51248;SDS011;39642;47.556;18.728;2022-12-07T04:16:31;10.50;;;4.20;;
51248;SDS011;39642;47.556;18.728;2022-12-07T04:18:57;11.55;;;4.47;;
51248;SDS011;39642;47.556;18.728;2022-12-07T04:21:23;10.25;;;3.60;;
51248;SDS011;39642;47.556;18.728;2022-12-07T04:23:49;10.40;;;4.15;;
51248;SDS011;39642;47.556;18.728;2022-12-07T04:26:15;11.88;;;4.68;;
51248;SDS011;39642;47.556;18.728;2022-12-07T04:28:41;11.43;;;4.18;;
51248;SDS011;39642;47.556;18.728;2022-12-07T04:31:06;10.30;;;3.92;;
51248;SDS011;39642;47.556;18.728;2022-12-07T04:33:32;10.75;;;4.45;;
51248;SDS011;39642;47.556;18.728;2022-12-07T04:35:58;11.60;;;4.65;;
51248;SDS011;39642;47.556;18.728;2022-12-07T04:38:24;11.73;;;4.80;;
51248;SDS011;39642;47.556;18.728;2022-12-07T04:40:50;11.52;;;4.68;;
51248;SDS011;39642;47.556;18.728;2022-12-07T04:43:16;10.65;;;3.90;;
51248;SDS011;39642;47.556;18.728;2022-12-07T04:45:46;11.85;;;4.60;;
51248;SDS011;39642;47.556;18.728;2022-12-07T04:48:13;12.18;;;5.00;;
51248;SDS011;39642;47.556;18.728;2022-12-07T04:50:39;10.77;;;4.80;;
51248;SDS011;39642;47.556;18.728;2022-12-07T04:53:05;11.73;;;4.75;;
51248;SDS011;39642;47.556;18.728;2022-12-07T04:55:30;11.80;;;4.78;;
51248;SDS011;39642;47.556;18.728;2022-12-07T04:57:56;12.37;;;4.85;;
51248;SDS011;39642;47.556;18.728;2022-12-07T05:00:22;11.55;;;4.72;;
51248;SDS011;39642;47.556;18.728;2022-12-07T05:02:48;12.23;;;4.82;;
51248;SDS011;39642;47.556;18.728;2022-12-07T05:05:14;12.10;;;4.65;;
51248;SDS011;39642;47.556;18.728;2022-12-07T05:07:40;11.60;;;4.90;;
51248;SDS011;39642;47.556;18.728;2022-12-07T05:10:06;11.23;;;4.35;;
51248;SDS011;39642;47.556;18.728;2022-12-07T05:12:32;12.07;;;5.07;;
51248;SDS011;39642;47.556;18.728;2022-12-07T05:14:58;11.65;;;4.37;;
51248;SDS011;39642;47.556;18.728;2022-12-07T05:17:24;10.90;;;4.32;;
51248;SDS011;39642;47.556;18.728;2022-12-07T05:19:50;10.35;;;4.00;;
51248;SDS011;39642;47.556;18.728;2022-12-07T05:22:16;9.13;;;3.55;;
51248;SDS011;39642;47.556;18.728;2022-12-07T05:24:41;10.23;;;4.10;;
51248;SDS011;39642;47.556;18.728;2022-12-07T05:27:07;10.65;;;4.32;;
51248;SDS011;39642;47.556;18.728;2022-12-07T05:29:33;11.45;;;4.65;;
51248;SDS011;39642;47.556;18.728;2022-12-07T05:31:59;10.07;;;4.15;;
51248;SDS011;39642;47.556;18.728;2022-12-07T05:34:25;10.50;;;4.15;;
51248;SDS011;39642;47.556;18.728;2022-12-07T05:36:51;14.27;;;5.82;;
51248;SDS011;39642;47.556;18.728;2022-12-07T05:39:17;12.70;;;4.75;;
51248;SDS011;39642;47.556;18.728;2022-12-07T05:41:42;11.63;;;4.78;;
51248;SDS011;39642;47.556;18.728;2022-12-07T05:44:27;10.80;;;3.97;;
51248;SDS011;39642;47.556;18.728;2022-12-07T05:46:53;10.82;;;4.30;;
51248;SDS011;39642;47.556;18.728;2022-12-07T05:49:19;12.43;;;4.72;;
51248;SDS011;39642;47.556;18.728;2022-12-07T05:51:44;12.93;;;5.07;;
51248;SDS011;39642;47.556;18.728;2022-12-07T05:54:10;13.10;;;5.05;;
51248;SDS011;39642;47.556;18.728;2022-12-07T05:56:36;12.93;;;6.40;;
51248;SDS011;39642;47.556;18.728;2022-12-07T05:59:02;13.73;;;5.40;;
51248;SDS011;39642;47.556;18.728;2022-12-07T06:01:47;12.93;;;5.22;;
51248;SDS011;39642;47.556;18.728;2022-12-07T06:04:14;15.35;;;5.25;;
51248;SDS011;39642;47.556;18.728;2022-12-07T06:06:40;13.10;;;5.32;;
51248;SDS011;39642;47.556;18.728;2022-12-07T06:09:06;11.55;;;4.78;;
51248;SDS011;39642;47.556;18.728;2022-12-07T06:11:32;14.02;;;5.50;;
51248;SDS011;39642;47.556;18.728;2022-12-07T06:14:16;15.55;;;6.47;;
51248;SDS011;39642;47.556;18.728;2022-12-07T06:16:42;12.65;;;5.37;;
51248;SDS011;39642;47.556;18.728;2022-12-07T06:19:08;14.20;;;5.82;;
51248;SDS011;39642;47.556;18.728;2022-12-07T06:21:34;20.48;;;8.07;;
51248;SDS011;39642;47.556;18.728;2022-12-07T06:24:00;24.12;;;10.02;;
51248;SDS011;39642;47.556;18.728;2022-12-07T06:26:26;28.62;;;11.88;;
51248;SDS011;39642;47.556;18.728;2022-12-07T06:28:52;42.20;;;12.27;;
51248;SDS011;39642;47.556;18.728;2022-12-07T06:31:18;21.37;;;9.80;;
51248;SDS011;39642;47.556;18.728;2022-12-07T06:33:44;23.75;;;8.65;;
51248;SDS011;39642;47.556;18.728;2022-12-07T06:36:09;18.95;;;8.82;;
51248;SDS011;39642;47.556;18.728;2022-12-07T06:38:35;27.98;;;10.70;;
51248;SDS011;39642;47.556;18.728;2022-12-07T06:41:01;23.02;;;11.27;;
51248;SDS011;39642;47.556;18.728;2022-12-07T06:43:27;26.02;;;11.93;;
51248;SDS011;39642;47.556;18.728;2022-12-07T06:45:54;23.23;;;10.05;;
51248;SDS011;39642;47.556;18.728;2022-12-07T06:48:20;23.83;;;10.13;;
51248;SDS011;39642;47.556;18.728;2022-12-07T06:50:46;34.97;;;9.90;;
51248;SDS011;39642;47.556;18.728;2022-12-07T06:53:13;25.15;;;8.55;;
51248;SDS011;39642;47.556;18.728;2022-12-07T06:55:39;24.10;;;10.38;;
51248;SDS011;39642;47.556;18.728;2022-12-07T06:58:05;23.98;;;9.27;;
51248;SDS011;39642;47.556;18.728;2022-12-07T07:00:30;23.33;;;8.93;;
51248;SDS011;39642;47.556;18.728;2022-12-07T07:02:56;21.85;;;8.85;;
51248;SDS011;39642;47.556;18.728;2022-12-07T07:05:22;20.58;;;7.78;;
51248;SDS011;39642;47.556;18.728;2022-12-07T07:07:49;23.98;;;8.82;;
51248;SDS011;39642;47.556;18.728;2022-12-07T07:10:15;23.85;;;8.82;;
51248;SDS011;39642;47.556;18.728;2022-12-07T07:12:41;21.12;;;7.15;;
51248;SDS011;39642;47.556;18.728;2022-12-07T07:15:07;24.20;;;7.78;;
51248;SDS011;39642;47.556;18.728;2022-12-07T07:17:33;26.35;;;8.02;;
51248;SDS011;39642;47.556;18.728;2022-12-07T07:19:59;20.17;;;8.00;;
51248;SDS011;39642;47.556;18.728;2022-12-07T07:22:25;21.80;;;7.95;;
51248;SDS011;39642;47.556;18.728;2022-12-07T07:24:51;21.48;;;6.50;;
51248;SDS011;39642;47.556;18.728;2022-12-07T07:27:17;21.23;;;6.40;;
51248;SDS011;39642;47.556;18.728;2022-12-07T07:29:43;21.85;;;7.12;;
51248;SDS011;39642;47.556;18.728;2022-12-07T07:32:09;21.92;;;7.20;;
51248;SDS011;39642;47.556;18.728;2022-12-07T07:34:34;27.15;;;6.72;;
51248;SDS011;39642;47.556;18.728;2022-12-07T07:37:00;16.20;;;5.05;;
51248;SDS011;39642;47.556;18.728;2022-12-07T07:39:26;19.20;;;6.00;;
51248;SDS011;39642;47.556;18.728;2022-12-07T07:41:52;19.52;;;6.72;;
51248;SDS011;39642;47.556;18.728;2022-12-07T07:44:18;23.00;;;5.40;;
51248;SDS011;39642;47.556;18.728;2022-12-07T07:46:44;20.23;;;5.80;;
51248;SDS011;39642;47.556;18.728;2022-12-07T07:49:10;38.38;;;8.02;;
51248;SDS011;39642;47.556;18.728;2022-12-07T07:51:36;26.12;;;7.47;;
51248;SDS011;39642;47.556;18.728;2022-12-07T07:54:02;49.50;;;8.80;;
51248;SDS011;39642;47.556;18.728;2022-12-07T07:56:28;29.77;;;6.70;;
51248;SDS011;39642;47.556;18.728;2022-12-07T07:58:54;34.58;;;7.55;;
51248;SDS011;39642;47.556;18.728;2022-12-07T08:01:20;30.92;;;7.10;;
51248;SDS011;39642;47.556;18.728;2022-12-07T08:03:46;23.05;;;6.55;;
51248;SDS011;39642;47.556;18.728;2022-12-07T08:06:13;33.78;;;7.65;;
51248;SDS011;39642;47.556;18.728;2022-12-07T08:08:39;24.70;;;6.72;;
51248;SDS011;39642;47.556;18.728;2022-12-07T08:11:05;31.70;;;7.50;;
51248;SDS011;39642;47.556;18.728;2022-12-07T08:13:36;27.70;;;7.53;;
51248;SDS011;39642;47.556;18.728;2022-12-07T08:16:06;31.23;;;8.02;;
51248;SDS011;39642;47.556;18.728;2022-12-07T08:18:37;35.78;;;9.45;;
51248;SDS011;39642;47.556;18.728;2022-12-07T08:21:05;25.77;;;7.20;;
51248;SDS011;39642;47.556;18.728;2022-12-07T08:23:32;22.37;;;7.62;;
51248;SDS011;39642;47.556;18.728;2022-12-07T08:26:00;27.48;;;8.00;;
51248;SDS011;39642;47.556;18.728;2022-12-07T08:28:27;25.73;;;7.47;;
51248;SDS011;39642;47.556;18.728;2022-12-07T08:30:58;25.12;;;7.37;;
51248;SDS011;39642;47.556;18.728;2022-12-07T08:33:28;28.08;;;8.30;;
51248;SDS011;39642;47.556;18.728;2022-12-07T08:35:55;29.92;;;9.60;;
51248;SDS011;39642;47.556;18.728;2022-12-07T08:38:25;26.60;;;7.87;;
51248;SDS011;39642;47.556;18.728;2022-12-07T08:40:54;27.02;;;8.30;;
51248;SDS011;39642;47.556;18.728;2022-12-07T08:43:21;30.90;;;9.15;;
51248;SDS011;39642;47.556;18.728;2022-12-07T08:45:47;30.23;;;8.73;;
51248;SDS011;39642;47.556;18.728;2022-12-07T08:48:25;29.15;;;8.90;;
51248;SDS011;39642;47.556;18.728;2022-12-07T08:50:51;38.58;;;10.55;;
51248;SDS011;39642;47.556;18.728;2022-12-07T08:53:17;36.53;;;8.70;;
51248;SDS011;39642;47.556;18.728;2022-12-07T08:55:44;38.20;;;8.40;;
51248;SDS011;39642;47.556;18.728;2022-12-07T08:58:12;23.27;;;8.30;;
51248;SDS011;39642;47.556;18.728;2022-12-07T09:00:38;29.73;;;8.32;;
51248;SDS011;39642;47.556;18.728;2022-12-07T09:03:04;27.73;;;6.72;;
51248;SDS011;39642;47.556;18.728;2022-12-07T09:05:29;36.22;;;8.38;;
51248;SDS011;39642;47.556;18.728;2022-12-07T09:07:57;30.00;;;8.05;;
51248;SDS011;39642;47.556;18.728;2022-12-07T09:10:27;36.78;;;8.70;;
51248;SDS011;39642;47.556;18.728;2022-12-07T09:12:54;35.83;;;8.70;;
51248;SDS011;39642;47.556;18.728;2022-12-07T09:15:20;31.62;;;8.13;;
51248;SDS011;39642;47.556;18.728;2022-12-07T09:17:46;31.92;;;8.25;;
51248;SDS011;39642;47.556;18.728;2022-12-07T09:20:12;49.15;;;8.30;;
51248;SDS011;39642;47.556;18.728;2022-12-07T09:22:38;51.92;;;9.35;;
51248;SDS011;39642;47.556;18.728;2022-12-07T09:25:04;42.65;;;9.20;;
51248;SDS011;39642;47.556;18.728;2022-12-07T09:27:30;47.17;;;9.45;;
51248;SDS011;39642;47.556;18.728;2022-12-07T09:29:56;72.12;;;19.62;;
51248;SDS011;39642;47.556;18.728;2022-12-07T09:32:22;170.15;;;40.60;;
51248;SDS011;39642;47.556;18.728;2022-12-07T09:34:48;135.75;;;35.63;;
51248;SDS011;39642;47.556;18.728;2022-12-07T09:37:15;70.65;;;16.37;;
51248;SDS011;39642;47.556;18.728;2022-12-07T09:39:41;41.17;;;10.93;;
51248;SDS011;39642;47.556;18.728;2022-12-07T09:42:07;58.63;;;15.20;;
51248;SDS011;39642;47.556;18.728;2022-12-07T09:44:34;139.05;;;35.55;;
51248;SDS011;39642;47.556;18.728;2022-12-07T09:47:01;93.30;;;25.75;;
51248;SDS011;39642;47.556;18.728;2022-12-07T09:49:28;67.28;;;19.05;;
51248;SDS011;39642;47.556;18.728;2022-12-07T09:52:17;287.10;;;76.53;;
51248;SDS011;39642;47.556;18.728;2022-12-07T09:54:49;310.02;;;81.00;;
51248;SDS011;39642;47.556;18.728;2022-12-07T09:57:16;382.45;;;100.35;;
51248;SDS011;39642;47.556;18.728;2022-12-07T09:59:42;117.20;;;29.52;;
51248;SDS011;39642;47.556;18.728;2022-12-07T10:02:19;600.78;;;175.85;;
51248;SDS011;39642;47.556;18.728;2022-12-07T10:04:59;216.05;;;54.38;;
51248;SDS011;39642;47.556;18.728;2022-12-07T10:07:25;135.63;;;35.17;;
51248;SDS011;39642;47.556;18.728;2022-12-07T10:09:51;473.23;;;116.57;;
51248;SDS011;39642;47.556;18.728;2022-12-07T10:12:17;593.42;;;154.32;;
51248;SDS011;39642;47.556;18.728;2022-12-07T10:14:53;573.80;;;136.32;;
51248;SDS011;39642;47.556;18.728;2022-12-07T10:17:29;500.27;;;110.53;;
51248;SDS011;39642;47.556;18.728;2022-12-07T10:22:37;157.12;;;29.33;;
51248;SDS011;39642;47.556;18.728;2022-12-07T10:25:20;792.50;;;194.48;;
51248;SDS011;39642;47.556;18.728;2022-12-07T10:32:57;607.05;;;142.40;;
51248;SDS011;39642;47.556;18.728;2022-12-07T10:35:27;376.48;;;75.22;;
51248;SDS011;39642;47.556;18.728;2022-12-07T10:37:55;480.65;;;104.07;;
51248;SDS011;39642;47.556;18.728;2022-12-07T10:48:18;169.32;;;33.78;;
51248;SDS011;39642;47.556;18.728;2022-12-07T10:50:58;113.32;;;24.42;;
51248;SDS011;39642;47.556;18.728;2022-12-07T10:58:47;140.80;;;29.85;;
51248;SDS011;39642;47.556;18.728;2022-12-07T11:09:49;200.57;;;44.72;;
51248;SDS011;39642;47.556;18.728;2022-12-07T11:15:18;138.00;;;29.73;;
51248;SDS011;39642;47.556;18.728;2022-12-07T11:23:23;216.23;;;48.17;;
51248;SDS011;39642;47.556;18.728;2022-12-07T11:38:53;88.60;;;19.23;;
51248;SDS011;39642;47.556;18.728;2022-12-07T11:41:24;42.65;;;9.40;;
51248;SDS011;39642;47.556;18.728;2022-12-07T11:52:17;40.10;;;9.45;;
51248;SDS011;39642;47.556;18.728;2022-12-07T11:54:44;57.92;;;13.60;;
51248;SDS011;39642;47.556;18.728;2022-12-07T11:57:20;86.93;;;20.70;;
51248;SDS011;39642;47.556;18.728;2022-12-07T12:00:03;65.75;;;17.08;;
51248;SDS011;39642;47.556;18.728;2022-12-07T12:02:41;54.83;;;10.48;;
51248;SDS011;39642;47.556;18.728;2022-12-07T12:05:21;30.30;;;7.25;;
51248;SDS011;39642;47.556;18.728;2022-12-07T12:07:52;52.17;;;10.93;;
51248;SDS011;39642;47.556;18.728;2022-12-07T12:10:42;37.63;;;8.50;;
51248;SDS011;39642;47.556;18.728;2022-12-07T12:21:23;79.22;;;20.85;;
51248;SDS011;39642;47.556;18.728;2022-12-07T12:24:04;92.82;;;20.52;;
51248;SDS011;39642;47.556;18.728;2022-12-07T12:26:38;49.83;;;12.82;;
51248;SDS011;39642;47.556;18.728;2022-12-07T12:29:21;48.08;;;10.73;;
51248;SDS011;39642;47.556;18.728;2022-12-07T12:34:57;29.42;;;8.40;;
51248;SDS011;39642;47.556;18.728;2022-12-07T12:45:37;27.85;;;6.70;;
51248;SDS011;39642;47.556;18.728;2022-12-07T12:50:33;33.85;;;6.47;;
51248;SDS011;39642;47.556;18.728;2022-12-07T12:55:49;29.98;;;6.55;;
51248;SDS011;39642;47.556;18.728;2022-12-07T12:58:29;62.97;;;15.30;;
51248;SDS011;39642;47.556;18.728;2022-12-07T13:04:12;47.50;;;9.30;;
51248;SDS011;39642;47.556;18.728;2022-12-07T13:06:43;101.68;;;25.73;;
51248;SDS011;39642;47.556;18.728;2022-12-07T13:09:26;34.30;;;6.75;;
51248;SDS011;39642;47.556;18.728;2022-12-07T13:12:00;35.08;;;9.90;;
51248;SDS011;39642;47.556;18.728;2022-12-07T13:20:07;41.17;;;11.63;;
51248;SDS011;39642;47.556;18.728;2022-12-07T13:27:37;93.50;;;23.87;;
51248;SDS011;39642;47.556;18.728;2022-12-07T13:30:12;91.72;;;21.98;;
51248;SDS011;39642;47.556;18.728;2022-12-07T13:32:40;81.30;;;14.57;;
51248;SDS011;39642;47.556;18.728;2022-12-07T13:38:00;36.90;;;7.97;;
51248;SDS011;39642;47.556;18.728;2022-12-07T13:40:29;43.38;;;7.62;;
51248;SDS011;39642;47.556;18.728;2022-12-07T13:42:59;40.58;;;7.35;;
51248;SDS011;39642;47.556;18.728;2022-12-07T13:45:30;26.58;;;6.22;;
51248;SDS011;39642;47.556;18.728;2022-12-07T13:50:59;25.62;;;6.57;;
51248;SDS011;39642;47.556;18.728;2022-12-07T13:53:28;47.62;;;11.00;;
51248;SDS011;39642;47.556;18.728;2022-12-07T13:55:58;39.10;;;7.45;;
51248;SDS011;39642;47.556;18.728;2022-12-07T13:58:26;28.60;;;6.30;;
51248;SDS011;39642;47.556;18.728;2022-12-07T14:00:55;40.42;;;7.15;;
51248;SDS011;39642;47.556;18.728;2022-12-07T14:03:34;54.25;;;10.25;;
51248;SDS011;39642;47.556;18.728;2022-12-07T14:08:43;30.02;;;6.20;;
51248;SDS011;39642;47.556;18.728;2022-12-07T14:11:12;23.52;;;5.20;;
51248;SDS011;39642;47.556;18.728;2022-12-07T14:13:51;33.88;;;7.00;;
51248;SDS011;39642;47.556;18.728;2022-12-07T14:16:33;45.03;;;7.30;;
51248;SDS011;39642;47.556;18.728;2022-12-07T14:19:05;86.82;;;8.90;;
51248;SDS011;39642;47.556;18.728;2022-12-07T14:22:05;141.88;;;14.45;;
51248;SDS011;39642;47.556;18.728;2022-12-07T14:24:43;62.35;;;8.73;;
51248;SDS011;39642;47.556;18.728;2022-12-07T14:27:20;52.50;;;9.40;;
51248;SDS011;39642;47.556;18.728;2022-12-07T14:29:48;60.72;;;8.38;;
51248;SDS011;39642;47.556;18.728;2022-12-07T14:32:22;52.13;;;8.75;;
51248;SDS011;39642;47.556;18.728;2022-12-07T14:35:07;59.53;;;8.00;;
51248;SDS011;39642;47.556;18.728;2022-12-07T14:37:33;50.38;;;6.87;;
51248;SDS011;39642;47.556;18.728;2022-12-07T14:39:59;35.67;;;6.53;;
51248;SDS011;39642;47.556;18.728;2022-12-07T14:42:27;46.65;;;7.07;;
51248;SDS011;39642;47.556;18.728;2022-12-07T14:44:55;43.05;;;6.87;;
51248;SDS011;39642;47.556;18.728;2022-12-07T14:47:22;45.58;;;6.70;;
51248;SDS011;39642;47.556;18.728;2022-12-07T14:49:49;42.92;;;6.75;;
51248;SDS011;39642;47.556;18.728;2022-12-07T14:52:17;55.25;;;7.12;;
51248;SDS011;39642;47.556;18.728;2022-12-07T14:54:49;44.28;;;6.55;;
51248;SDS011;39642;47.556;18.728;2022-12-07T14:57:15;34.60;;;5.62;;
51248;SDS011;39642;47.556;18.728;2022-12-07T14:59:41;45.55;;;7.12;;
51248;SDS011;39642;47.556;18.728;2022-12-07T15:02:08;64.00;;;7.43;;
51248;SDS011;39642;47.556;18.728;2022-12-07T15:04:36;66.40;;;8.60;;
51248;SDS011;39642;47.556;18.728;2022-12-07T15:07:03;70.37;;;8.00;;
51248;SDS011;39642;47.556;18.728;2022-12-07T15:09:30;84.90;;;7.93;;
51248;SDS011;39642;47.556;18.728;2022-12-07T15:11:56;56.90;;;8.80;;
51248;SDS011;39642;47.556;18.728;2022-12-07T15:14:22;64.22;;;8.30;;
51248;SDS011;39642;47.556;18.728;2022-12-07T15:16:48;46.65;;;7.43;;
51248;SDS011;39642;47.556;18.728;2022-12-07T15:19:15;40.40;;;7.18;;
51248;SDS011;39642;47.556;18.728;2022-12-07T15:21:48;66.65;;;9.18;;
51248;SDS011;39642;47.556;18.728;2022-12-07T15:24:15;55.15;;;8.05;;
51248;SDS011;39642;47.556;18.728;2022-12-07T15:26:41;48.22;;;7.85;;
51248;SDS011;39642;47.556;18.728;2022-12-07T15:29:07;48.13;;;7.95;;
51248;SDS011;39642;47.556;18.728;2022-12-07T15:31:33;41.78;;;8.38;;
51248;SDS011;39642;47.556;18.728;2022-12-07T15:34:00;43.28;;;7.65;;
51248;SDS011;39642;47.556;18.728;2022-12-07T15:36:27;37.03;;;7.25;;
51248;SDS011;39642;47.556;18.728;2022-12-07T15:38:55;39.38;;;7.80;;
51248;SDS011;39642;47.556;18.728;2022-12-07T15:41:21;31.40;;;6.40;;
51248;SDS011;39642;47.556;18.728;2022-12-07T15:43:47;33.90;;;7.07;;
51248;SDS011;39642;47.556;18.728;2022-12-07T15:46:33;70.12;;;17.00;;
51248;SDS011;39642;47.556;18.728;2022-12-07T15:49:05;42.08;;;9.38;;
51248;SDS011;39642;47.556;18.728;2022-12-07T15:51:35;38.28;;;10.50;;
51248;SDS011;39642;47.556;18.728;2022-12-07T15:54:01;30.65;;;7.53;;
51248;SDS011;39642;47.556;18.728;2022-12-07T15:56:26;32.35;;;6.80;;
51248;SDS011;39642;47.556;18.728;2022-12-07T15:58:52;30.60;;;7.72;;
51248;SDS011;39642;47.556;18.728;2022-12-07T16:01:19;28.05;;;6.53;;
51248;SDS011;39642;47.556;18.728;2022-12-07T16:03:45;22.10;;;5.95;;
51248;SDS011;39642;47.556;18.728;2022-12-07T16:06:14;23.87;;;6.25;;
51248;SDS011;39642;47.556;18.728;2022-12-07T16:08:42;22.95;;;6.00;;
51248;SDS011;39642;47.556;18.728;2022-12-07T16:11:09;21.73;;;5.78;;
51248;SDS011;39642;47.556;18.728;2022-12-07T16:13:35;32.72;;;6.65;;
51248;SDS011;39642;47.556;18.728;2022-12-07T16:16:02;18.98;;;6.25;;
51248;SDS011;39642;47.556;18.728;2022-12-07T16:18:29;29.45;;;6.25;;
51248;SDS011;39642;47.556;18.728;2022-12-07T16:20:55;21.15;;;6.40;;
51248;SDS011;39642;47.556;18.728;2022-12-07T16:23:21;26.65;;;7.20;;
51248;SDS011;39642;47.556;18.728;2022-12-07T16:25:47;26.15;;;7.28;;
51248;SDS011;39642;47.556;18.728;2022-12-07T16:28:13;30.23;;;9.82;;
51248;SDS011;39642;47.556;18.728;2022-12-07T16:30:39;26.12;;;8.02;;
51248;SDS011;39642;47.556;18.728;2022-12-07T16:33:05;28.87;;;7.90;;
51248;SDS011;39642;47.556;18.728;2022-12-07T16:35:31;28.90;;;9.07;;
51248;SDS011;39642;47.556;18.728;2022-12-07T16:37:57;26.15;;;8.65;;
51248;SDS011;39642;47.556;18.728;2022-12-07T16:40:23;21.83;;;6.50;;
51248;SDS011;39642;47.556;18.728;2022-12-07T16:42:49;31.95;;;8.25;;
51248;SDS011;39642;47.556;18.728;2022-12-07T16:45:15;26.62;;;7.20;;
51248;SDS011;39642;47.556;18.728;2022-12-07T16:47:41;25.35;;;7.15;;
51248;SDS011;39642;47.556;18.728;2022-12-07T16:50:07;24.02;;;7.05;;
51248;SDS011;39642;47.556;18.728;2022-12-07T16:52:33;24.75;;;7.65;;
51248;SDS011;39642;47.556;18.728;2022-12-07T16:54:59;22.37;;;7.12;;